sensor_id;sensor_type;location;lat;lon;timestamp;pressure;altitude;pressure_sealevel;temperature;humidity
50696;BME280;36665;51.786;21.594;2022-08-03T00:07:38;100313.58;;;17.36;68.95
50696;BME280;36665;51.786;21.594;2022-08-03T00:16:03;100315.92;;;17.16;69.44
50696;BME280;36665;51.786;21.594;2022-08-03T00:24:26;100325.65;;;17.05;69.75
50696;BME280;36665;51.786;21.594;2022-08-03T00:32:49;100328.16;;;16.94;69.99
50696;BME280;36665;51.786;21.594;2022-08-03T00:41:12;100324.76;;;16.83;70.21
50696;BME280;36665;51.786;21.594;2022-08-03T00:49:38;100330.40;;;16.81;70.42
50696;BME280;36665;51.786;21.594;2022-08-03T00:58:04;100338.73;;;16.70;70.24
50696;BME280;36665;51.786;21.594;2022-08-03T01:06:34;100336.10;;;16.58;70.06
50696;BME280;36665;51.786;21.594;2022-08-03T01:23:52;100328.27;;;16.31;70.23
50696;BME280;36665;51.786;21.594;2022-08-03T01:32:26;100324.41;;;16.17;70.26
50696;BME280;36665;51.786;21.594;2022-08-03T01:41:14;100324.17;;;16.06;70.60
50696;BME280;36665;51.786;21.594;2022-08-03T01:49:42;100325.20;;;15.95;70.63
50696;BME280;36665;51.786;21.594;2022-08-03T01:58:07;100326.94;;;15.88;71.22
50696;BME280;36665;51.786;21.594;2022-08-03T02:06:32;100314.48;;;15.84;70.84
50696;BME280;36665;51.786;21.594;2022-08-03T02:15:17;100313.56;;;15.70;70.89
50696;BME280;36665;51.786;21.594;2022-08-03T02:23:41;100314.36;;;15.62;70.99
50696;BME280;36665;51.786;21.594;2022-08-03T02:32:04;100318.87;;;15.58;71.24
50696;BME280;36665;51.786;21.594;2022-08-03T02:40:31;100319.65;;;15.50;71.04
50696;BME280;36665;51.786;21.594;2022-08-03T02:48:55;100326.03;;;15.40;71.29
50696;BME280;36665;51.786;21.594;2022-08-03T02:57:42;100329.99;;;15.37;71.57
50696;BME280;36665;51.786;21.594;2022-08-03T03:06:06;100330.98;;;15.38;71.78
50696;BME280;36665;51.786;21.594;2022-08-03T03:14:31;100336.09;;;15.42;71.85
50696;BME280;36665;51.786;21.594;2022-08-03T03:22:58;100340.88;;;15.42;71.93
50696;BME280;36665;51.786;21.594;2022-08-03T03:31:22;100342.34;;;15.44;72.05
50696;BME280;36665;51.786;21.594;2022-08-03T03:39:45;100347.52;;;15.48;72.28
50696;BME280;36665;51.786;21.594;2022-08-03T03:48:09;100347.61;;;15.59;72.55
50696;BME280;36665;51.786;21.594;2022-08-03T03:56:32;100353.35;;;15.68;72.86
50696;BME280;36665;51.786;21.594;2022-08-03T04:04:55;100355.26;;;15.75;72.90
50696;BME280;36665;51.786;21.594;2022-08-03T04:14:11;100360.31;;;15.81;72.94
50696;BME280;36665;51.786;21.594;2022-08-03T04:22:36;100367.19;;;16.03;73.24
50696;BME280;36665;51.786;21.594;2022-08-03T04:31:02;100365.35;;;16.34;73.65
50696;BME280;36665;51.786;21.594;2022-08-03T04:39:28;100367.89;;;16.84;73.86
50696;BME280;36665;51.786;21.594;2022-08-03T04:47:53;100374.73;;;17.47;74.36
50696;BME280;36665;51.786;21.594;2022-08-03T04:56:17;100379.64;;;18.32;74.60
50696;BME280;36665;51.786;21.594;2022-08-03T05:04:40;100381.11;;;18.93;72.93
50696;BME280;36665;51.786;21.594;2022-08-03T05:13:08;100381.23;;;19.10;72.34
50696;BME280;36665;51.786;21.594;2022-08-03T05:21:34;100384.36;;;19.75;73.43
50696;BME280;36665;51.786;21.594;2022-08-03T05:30:14;100382.97;;;20.86;73.54
50696;BME280;36665;51.786;21.594;2022-08-03T05:38:55;100387.70;;;21.97;72.72
50696;BME280;36665;51.786;21.594;2022-08-03T05:47:24;100394.39;;;22.89;70.84
50696;BME280;36665;51.786;21.594;2022-08-03T05:55:46;100395.30;;;23.81;70.16
50696;BME280;36665;51.786;21.594;2022-08-03T06:04:17;100397.26;;;24.68;68.67
50696;BME280;36665;51.786;21.594;2022-08-03T06:12:40;100395.98;;;25.33;67.14
50696;BME280;36665;51.786;21.594;2022-08-03T06:21:03;100405.70;;;25.35;64.06
50696;BME280;36665;51.786;21.594;2022-08-03T06:29:37;100411.20;;;24.89;62.96
50696;BME280;36665;51.786;21.594;2022-08-03T06:38:00;100414.16;;;24.38;62.69
50696;BME280;36665;51.786;21.594;2022-08-03T06:46:23;100418.20;;;23.94;63.23
50696;BME280;36665;51.786;21.594;2022-08-03T06:54:47;100412.20;;;23.75;63.81
50696;BME280;36665;51.786;21.594;2022-08-03T07:03:10;100411.12;;;24.10;65.66
50696;BME280;36665;51.786;21.594;2022-08-03T07:11:34;100411.30;;;24.82;64.53
50696;BME280;36665;51.786;21.594;2022-08-03T07:19:57;100414.11;;;24.92;63.48
50696;BME280;36665;51.786;21.594;2022-08-03T07:28:21;100413.27;;;25.00;64.17
50696;BME280;36665;51.786;21.594;2022-08-03T07:36:44;100416.84;;;24.76;62.24
50696;BME280;36665;51.786;21.594;2022-08-03T07:45:08;100420.60;;;24.24;62.17
50696;BME280;36665;51.786;21.594;2022-08-03T07:53:38;100429.15;;;24.97;64.92
50696;BME280;36665;51.786;21.594;2022-08-03T08:02:09;100425.20;;;26.44;64.19
50696;BME280;36665;51.786;21.594;2022-08-03T08:10:32;100422.23;;;27.42;61.69
50696;BME280;36665;51.786;21.594;2022-08-03T08:18:56;100430.89;;;27.50;59.39
50696;BME280;36665;51.786;21.594;2022-08-03T08:27:19;100435.30;;;27.35;58.37
50696;BME280;36665;51.786;21.594;2022-08-03T08:35:42;100440.04;;;26.84;57.50
50696;BME280;36665;51.786;21.594;2022-08-03T08:44:05;100441.02;;;26.39;57.60
50696;BME280;36665;51.786;21.594;2022-08-03T08:52:30;100439.10;;;26.05;57.67
50696;BME280;36665;51.786;21.594;2022-08-03T09:00:55;100441.98;;;25.99;58.24
50696;BME280;36665;51.786;21.594;2022-08-03T09:09:18;100440.98;;;26.10;58.71
50696;BME280;36665;51.786;21.594;2022-08-03T09:18:02;100436.34;;;26.50;58.65
50696;BME280;36665;51.786;21.594;2022-08-03T09:26:27;100438.58;;;26.72;57.92
50696;BME280;36665;51.786;21.594;2022-08-03T09:34:52;100436.38;;;26.57;56.96
50696;BME280;36665;51.786;21.594;2022-08-03T09:43:20;100437.73;;;26.53;57.02
50696;BME280;36665;51.786;21.594;2022-08-03T09:51:44;100438.09;;;26.66;57.32
50696;BME280;36665;51.786;21.594;2022-08-03T10:00:28;100432.78;;;26.92;57.07
50696;BME280;36665;51.786;21.594;2022-08-03T10:09:05;100426.98;;;27.57;57.36
50696;BME280;36665;51.786;21.594;2022-08-03T10:17:28;100418.56;;;28.12;55.64
50696;BME280;36665;51.786;21.594;2022-08-03T10:25:54;100426.25;;;28.07;54.28
50696;BME280;36665;51.786;21.594;2022-08-03T10:34:25;100423.36;;;27.54;53.41
50696;BME280;36665;51.786;21.594;2022-08-03T10:42:50;100422.49;;;27.66;54.69
50696;BME280;36665;51.786;21.594;2022-08-03T10:51:18;100422.11;;;27.78;53.86
50696;BME280;36665;51.786;21.594;2022-08-03T11:08:19;100417.78;;;27.25;52.99
50696;BME280;36665;51.786;21.594;2022-08-03T11:17:00;100413.80;;;27.28;53.65
50696;BME280;36665;51.786;21.594;2022-08-03T11:26:17;100411.51;;;27.48;53.37
50696;BME280;36665;51.786;21.594;2022-08-03T11:51:53;100388.96;;;29.07;52.48
50696;BME280;36665;51.786;21.594;2022-08-03T12:00:36;100388.85;;;29.54;52.23
50696;BME280;36665;51.786;21.594;2022-08-03T12:09:00;100387.77;;;29.93;51.16
50696;BME280;36665;51.786;21.594;2022-08-03T12:17:23;100383.29;;;30.01;50.50
50696;BME280;36665;51.786;21.594;2022-08-03T12:25:46;100379.38;;;29.75;49.29
50696;BME280;36665;51.786;21.594;2022-08-03T12:34:11;100371.24;;;29.64;49.42
50696;BME280;36665;51.786;21.594;2022-08-03T12:42:37;100361.86;;;29.61;49.23
50696;BME280;36665;51.786;21.594;2022-08-03T12:51:10;100364.84;;;29.66;49.31
50696;BME280;36665;51.786;21.594;2022-08-03T12:59:37;100355.64;;;29.77;48.72
50696;BME280;36665;51.786;21.594;2022-08-03T13:08:19;100344.31;;;29.67;48.34
50696;BME280;36665;51.786;21.594;2022-08-03T13:16:42;100341.84;;;29.63;48.31
50696;BME280;36665;51.786;21.594;2022-08-03T13:25:05;100332.66;;;29.46;47.46
50696;BME280;36665;51.786;21.594;2022-08-03T13:33:29;100324.84;;;29.33;47.87
50696;BME280;36665;51.786;21.594;2022-08-03T13:41:52;100317.54;;;29.39;48.25
50696;BME280;36665;51.786;21.594;2022-08-03T13:50:16;100311.55;;;29.48;47.91
50696;BME280;36665;51.786;21.594;2022-08-03T13:58:38;100304.58;;;29.49;47.48
50696;BME280;36665;51.786;21.594;2022-08-03T14:07:02;100302.91;;;29.43;47.21
50696;BME280;36665;51.786;21.594;2022-08-03T14:15:25;100297.20;;;29.39;47.48
50696;BME280;36665;51.786;21.594;2022-08-03T14:23:50;100294.98;;;29.41;47.74
50696;BME280;36665;51.786;21.594;2022-08-03T14:32:13;100291.15;;;29.46;47.58
50696;BME280;36665;51.786;21.594;2022-08-03T14:40:37;100287.61;;;29.40;46.55
50696;BME280;36665;51.786;21.594;2022-08-03T14:49:00;100282.33;;;29.34;46.82
50696;BME280;36665;51.786;21.594;2022-08-03T14:57:44;100284.38;;;29.33;46.64
50696;BME280;36665;51.786;21.594;2022-08-03T15:06:07;100287.35;;;29.23;46.60
50696;BME280;36665;51.786;21.594;2022-08-03T15:14:31;100280.48;;;28.95;46.51
50696;BME280;36665;51.786;21.594;2022-08-03T15:22:56;100277.83;;;28.37;46.69
50696;BME280;36665;51.786;21.594;2022-08-03T15:31:23;100272.73;;;27.70;47.02
50696;BME280;36665;51.786;21.594;2022-08-03T15:39:46;100266.16;;;27.40;47.83
50696;BME280;36665;51.786;21.594;2022-08-03T15:48:22;100264.83;;;27.33;47.89
50696;BME280;36665;51.786;21.594;2022-08-03T15:56:48;100258.94;;;27.40;47.95
50696;BME280;36665;51.786;21.594;2022-08-03T16:05:11;100248.74;;;27.49;48.03
50696;BME280;36665;51.786;21.594;2022-08-03T16:13:34;100243.46;;;27.49;47.65
50696;BME280;36665;51.786;21.594;2022-08-03T16:22:17;100234.91;;;27.47;47.29
50696;BME280;36665;51.786;21.594;2022-08-03T16:30:45;100231.04;;;27.41;47.40
50696;BME280;36665;51.786;21.594;2022-08-03T16:39:08;100229.70;;;27.31;47.33
50696;BME280;36665;51.786;21.594;2022-08-03T16:47:31;100231.45;;;27.13;47.72
50696;BME280;36665;51.786;21.594;2022-08-03T16:55:54;100233.04;;;27.00;47.92
50696;BME280;36665;51.786;21.594;2022-08-03T17:04:17;100234.77;;;26.80;48.04
50696;BME280;36665;51.786;21.594;2022-08-03T17:12:41;100240.97;;;26.54;48.16
50696;BME280;36665;51.786;21.594;2022-08-03T17:21:05;100247.80;;;26.29;48.81
50696;BME280;36665;51.786;21.594;2022-08-03T17:29:32;100257.27;;;26.04;49.13
50696;BME280;36665;51.786;21.594;2022-08-03T17:38:01;100265.98;;;25.74;49.49
50696;BME280;36665;51.786;21.594;2022-08-03T17:46:31;100273.50;;;25.42;49.94
50696;BME280;36665;51.786;21.594;2022-08-03T17:55:14;100286.13;;;25.06;50.53
50696;BME280;36665;51.786;21.594;2022-08-03T18:04:02;100292.27;;;24.58;51.34
50696;BME280;36665;51.786;21.594;2022-08-03T18:21:07;100312.50;;;23.65;53.45
50696;BME280;36665;51.786;21.594;2022-08-03T18:29:40;100319.24;;;23.16;54.45
50696;BME280;36665;51.786;21.594;2022-08-03T18:38:12;100329.98;;;22.68;55.18
50696;BME280;36665;51.786;21.594;2022-08-03T18:55:40;100358.74;;;22.01;56.79
50696;BME280;36665;51.786;21.594;2022-08-03T19:04:26;100362.42;;;21.81;57.36
50696;BME280;36665;51.786;21.594;2022-08-03T19:12:57;100367.13;;;21.49;57.55
50696;BME280;36665;51.786;21.594;2022-08-03T19:21:32;100369.02;;;21.11;58.12
50696;BME280;36665;51.786;21.594;2022-08-03T19:29:58;100374.82;;;20.80;59.08
50696;BME280;36665;51.786;21.594;2022-08-03T19:38:26;100376.66;;;20.72;59.98
50696;BME280;36665;51.786;21.594;2022-08-03T19:46:56;100380.00;;;20.53;59.82
50696;BME280;36665;51.786;21.594;2022-08-03T19:55:27;100383.48;;;20.26;60.29
50696;BME280;36665;51.786;21.594;2022-08-03T20:03:54;100392.52;;;20.07;60.81
50696;BME280;36665;51.786;21.594;2022-08-03T20:12:19;100389.57;;;19.88;61.13
50696;BME280;36665;51.786;21.594;2022-08-03T20:20:51;100392.36;;;19.63;61.49
50696;BME280;36665;51.786;21.594;2022-08-03T20:29:21;100390.94;;;19.47;61.78
50696;BME280;36665;51.786;21.594;2022-08-03T20:38:07;100392.28;;;19.30;62.27
50696;BME280;36665;51.786;21.594;2022-08-03T20:46:31;100389.54;;;19.17;62.57
50696;BME280;36665;51.786;21.594;2022-08-03T20:55:11;100391.38;;;19.10;63.12
50696;BME280;36665;51.786;21.594;2022-08-03T21:03:36;100398.59;;;18.99;62.97
50696;BME280;36665;51.786;21.594;2022-08-03T21:12:06;100400.47;;;18.81;63.20
50696;BME280;36665;51.786;21.594;2022-08-03T21:20:32;100400.29;;;18.75;63.55
50696;BME280;36665;51.786;21.594;2022-08-03T21:28:56;100408.66;;;18.69;63.53
50696;BME280;36665;51.786;21.594;2022-08-03T21:37:20;100416.27;;;18.56;63.93
50696;BME280;36665;51.786;21.594;2022-08-03T21:46:02;100422.27;;;18.50;64.21
50696;BME280;36665;51.786;21.594;2022-08-03T21:54:34;100419.22;;;18.42;64.30
50696;BME280;36665;51.786;21.594;2022-08-03T22:02:58;100419.84;;;18.29;64.26
50696;BME280;36665;51.786;21.594;2022-08-03T22:11:39;100420.80;;;18.21;64.47
50696;BME280;36665;51.786;21.594;2022-08-03T22:20:10;100417.92;;;18.11;64.32
50696;BME280;36665;51.786;21.594;2022-08-03T22:28:34;100420.48;;;18.04;64.78
50696;BME280;36665;51.786;21.594;2022-08-03T22:37:01;100421.58;;;17.95;64.94
50696;BME280;36665;51.786;21.594;2022-08-03T22:45:25;100417.65;;;17.88;64.87
50696;BME280;36665;51.786;21.594;2022-08-03T22:54:10;100418.34;;;17.80;64.92
50696;BME280;36665;51.786;21.594;2022-08-03T23:02:39;100415.63;;;17.69;64.80
50696;BME280;36665;51.786;21.594;2022-08-03T23:11:06;100414.06;;;17.58;65.05
50696;BME280;36665;51.786;21.594;2022-08-03T23:19:32;100413.30;;;17.48;65.04
50696;BME280;36665;51.786;21.594;2022-08-03T23:28:08;100403.80;;;17.36;65.43
50696;BME280;36665;51.786;21.594;2022-08-03T23:36:32;100404.10;;;17.26;65.28
50696;BME280;36665;51.786;21.594;2022-08-03T23:44:56;100401.40;;;17.10;65.46
50696;BME280;36665;51.786;21.594;2022-08-03T23:53:53;100403.34;;;16.95;65.60
